createdAt,value
2022-09-01T00:00:06.168Z,0.00
2022-09-01T00:01:06.152Z,0.00
2022-09-01T00:02:06.155Z,0.00
2022-09-01T00:03:06.111Z,0.00
2022-09-01T00:04:06.114Z,0.00
2022-09-01T00:05:06.074Z,0.00
2022-09-01T00:06:06.046Z,0.00
2022-09-01T00:07:06.023Z,0.00
2022-09-01T00:08:06.002Z,0.00
2022-09-01T00:09:05.986Z,0.00
2022-09-01T00:10:05.957Z,0.00
2022-09-01T00:11:05.939Z,0.00
2022-09-01T00:12:05.917Z,0.00
2022-09-01T00:13:05.890Z,0.00
2022-09-01T00:14:05.868Z,0.00
2022-09-01T00:15:06.853Z,0.00
2022-09-01T00:16:05.856Z,0.00
2022-09-01T00:17:05.806Z,0.00
2022-09-01T00:18:05.789Z,0.00
2022-09-01T00:19:05.770Z,0.00
2022-09-01T00:20:05.744Z,0.00
2022-09-01T00:21:05.717Z,0.00
2022-09-01T00:22:05.697Z,0.00
2022-09-01T00:23:05.673Z,0.00
2022-09-01T00:24:05.655Z,0.00
2022-09-01T00:25:05.634Z,0.00
2022-09-01T00:26:05.619Z,0.00
2022-09-01T00:27:05.594Z,0.00
2022-09-01T00:28:05.571Z,0.00
2022-09-01T00:29:05.551Z,0.00
2022-09-01T00:30:05.529Z,0.00
2022-09-01T00:31:05.556Z,0.00
2022-09-01T00:32:05.491Z,0.00
2022-09-01T00:33:05.469Z,0.00
2022-09-01T00:34:05.456Z,0.00
2022-09-01T00:35:05.422Z,0.00
2022-09-01T00:36:05.402Z,0.00
2022-09-01T00:37:05.383Z,0.00
2022-09-01T00:38:05.360Z,0.00
2022-09-01T00:39:05.345Z,0.00
2022-09-01T00:40:05.454Z,0.00
2022-09-01T00:41:05.301Z,0.00
2022-09-01T00:42:05.274Z,0.00
2022-09-01T00:43:05.252Z,0.00
2022-09-01T00:44:05.230Z,0.00
2022-09-01T00:45:05.211Z,0.00
2022-09-01T00:46:05.258Z,0.00
2022-09-01T00:47:05.166Z,0.00
2022-09-01T00:48:05.149Z,0.00
2022-09-01T00:49:05.126Z,0.00
2022-09-01T00:50:05.112Z,0.00
2022-09-01T00:51:05.086Z,0.00
2022-09-01T00:52:05.069Z,0.00
2022-09-01T00:53:05.051Z,0.00
2022-09-01T00:54:05.028Z,0.00
2022-09-01T00:55:05.017Z,0.00
2022-09-01T00:56:04.989Z,0.00
2022-09-01T00:57:04.965Z,0.00
2022-09-01T00:58:04.948Z,0.00
2022-09-01T00:59:04.931Z,0.00
2022-09-01T01:00:04.912Z,0.00
2022-09-01T01:01:04.945Z,0.00
2022-09-01T01:02:04.927Z,0.00
2022-09-01T01:03:04.852Z,0.00
2022-09-01T01:04:04.839Z,0.00
2022-09-01T01:05:04.810Z,0.00
2022-09-01T01:06:04.793Z,0.00
2022-09-01T01:07:04.772Z,0.00
2022-09-01T01:08:04.754Z,0.00
2022-09-01T01:09:04.735Z,0.00
2022-09-01T01:10:04.713Z,0.00
2022-09-01T01:11:04.689Z,0.00
2022-09-01T01:12:04.671Z,0.00
2022-09-01T01:13:04.665Z,0.00
2022-09-01T01:14:04.634Z,0.00
2022-09-01T01:15:04.610Z,0.00
2022-09-01T01:16:04.589Z,0.00
2022-09-01T01:17:04.619Z,0.00
2022-09-01T01:18:04.544Z,0.00
2022-09-01T01:19:04.535Z,0.00
2022-09-01T01:20:04.512Z,0.00
2022-09-01T01:21:04.490Z,0.00
2022-09-01T01:22:04.472Z,0.00
2022-09-01T01:23:04.449Z,0.00
2022-09-01T01:24:04.432Z,0.00
2022-09-01T01:25:04.414Z,0.00
2022-09-01T01:26:04.395Z,0.00
2022-09-01T01:27:04.375Z,0.00
2022-09-01T01:28:04.358Z,0.00
2022-09-01T01:29:04.337Z,0.00
2022-09-01T01:30:04.320Z,0.00
2022-09-01T01:31:05.349Z,0.00
2022-09-01T01:32:04.280Z,0.00
2022-09-01T01:33:04.261Z,0.00
2022-09-01T01:34:04.237Z,0.00
2022-09-01T01:35:04.220Z,0.00
2022-09-01T01:36:04.200Z,0.00
2022-09-01T01:37:04.180Z,0.00
2022-09-01T01:38:04.154Z,0.00
2022-09-01T01:39:04.132Z,0.00
2022-09-01T01:40:04.176Z,0.00
2022-09-01T01:41:04.095Z,0.00
2022-09-01T01:42:04.074Z,0.00
2022-09-01T01:43:04.055Z,0.00
2022-09-01T01:44:04.034Z,0.00
2022-09-01T01:45:04.015Z,0.00
2022-09-01T01:46:04.046Z,0.00
2022-09-01T01:47:03.972Z,0.00
2022-09-01T01:48:03.954Z,0.00
2022-09-01T01:49:03.931Z,0.00
2022-09-01T01:50:03.910Z,0.00
2022-09-01T01:51:03.892Z,0.00
2022-09-01T01:52:03.874Z,0.00
2022-09-01T01:53:03.852Z,0.00
2022-09-01T01:54:04.835Z,0.00
2022-09-01T01:55:05.287Z,0.00
2022-09-01T01:56:04.798Z,0.00
2022-09-01T01:57:03.776Z,0.00
2022-09-01T01:58:03.761Z,0.00
2022-09-01T01:59:03.749Z,0.00
2022-09-01T02:00:03.731Z,0.00
2022-09-01T02:01:03.822Z,0.00
2022-09-01T02:02:03.839Z,0.00
2022-09-01T02:03:03.676Z,0.00
2022-09-01T02:04:03.653Z,0.00
2022-09-01T02:05:03.632Z,0.00
2022-09-01T02:06:03.619Z,0.00
2022-09-01T02:07:03.595Z,0.00
2022-09-01T02:08:03.577Z,0.00
2022-09-01T02:09:03.559Z,0.00
2022-09-01T02:10:03.537Z,0.00
2022-09-01T02:11:03.518Z,0.00
2022-09-01T02:12:03.497Z,0.00
2022-09-01T02:13:03.472Z,0.00
2022-09-01T02:14:03.456Z,0.00
2022-09-01T02:15:03.435Z,0.00
2022-09-01T02:16:03.414Z,0.00
2022-09-01T02:17:03.431Z,0.00
2022-09-01T02:18:05.046Z,0.00
2022-09-01T02:19:03.352Z,0.00
2022-09-01T02:20:03.336Z,0.00
2022-09-01T02:21:03.318Z,0.00
2022-09-01T02:22:03.297Z,0.00
2022-09-01T02:23:03.274Z,0.00
2022-09-01T02:24:03.259Z,0.00
2022-09-01T02:25:03.251Z,0.00
2022-09-01T02:26:16.250Z,0.00
2022-09-01T02:27:05.200Z,0.00
2022-09-01T02:28:03.180Z,0.00
2022-09-01T02:29:03.161Z,0.00
2022-09-01T02:30:03.143Z,0.00
2022-09-01T02:31:03.186Z,0.00
2022-09-01T02:32:03.100Z,0.00
2022-09-01T02:33:03.094Z,0.00
2022-09-01T02:34:03.063Z,0.00
2022-09-01T02:35:03.051Z,0.00
2022-09-01T02:36:03.025Z,0.00
2022-09-01T02:37:03.012Z,0.00
2022-09-01T02:38:02.993Z,0.00
2022-09-01T02:39:02.969Z,0.00
2022-09-01T02:40:02.997Z,0.00
2022-09-01T02:41:02.934Z,0.00
2022-09-01T02:42:02.913Z,0.00
2022-09-01T02:43:02.895Z,0.00
2022-09-01T02:44:02.875Z,0.00
2022-09-01T02:45:02.861Z,0.00
2022-09-01T02:46:02.852Z,0.00
2022-09-01T02:47:02.819Z,0.00
2022-09-01T02:48:02.796Z,0.00
2022-09-01T02:49:02.778Z,0.00
2022-09-01T02:50:02.761Z,0.00
2022-09-01T02:51:02.743Z,0.00
2022-09-01T02:52:02.736Z,0.00
2022-09-01T02:53:03.997Z,0.00
2022-09-01T02:54:03.689Z,0.00
2022-09-01T02:55:02.667Z,0.00
2022-09-01T02:56:02.648Z,0.00
2022-09-01T02:57:02.632Z,0.00
2022-09-01T02:58:02.607Z,0.00
2022-09-01T02:59:02.589Z,0.00
2022-09-01T03:00:02.580Z,0.00
2022-09-01T03:01:02.881Z,0.00
2022-09-01T03:02:02.530Z,0.00
2022-09-01T03:03:02.511Z,0.00
2022-09-01T03:04:02.493Z,0.00
2022-09-01T03:05:02.513Z,0.00
2022-09-01T03:06:02.451Z,0.00
2022-09-01T03:07:02.436Z,0.00
2022-09-01T03:08:02.414Z,0.00
2022-09-01T03:09:02.400Z,0.00
2022-09-01T03:10:02.379Z,0.00
2022-09-01T03:11:02.360Z,0.00
2022-09-01T03:12:02.343Z,0.00
2022-09-01T03:13:02.325Z,0.00
2022-09-01T03:14:02.304Z,0.00
2022-09-01T03:15:02.284Z,0.00
2022-09-01T03:16:02.266Z,0.00
2022-09-01T03:17:02.292Z,0.00
2022-09-01T03:18:02.230Z,0.00
2022-09-01T03:19:02.207Z,0.00
2022-09-01T03:20:02.185Z,0.00
2022-09-01T03:21:02.168Z,0.00
2022-09-01T03:22:02.152Z,0.00
2022-09-01T03:23:02.130Z,0.00
2022-09-01T03:24:02.197Z,0.00
2022-09-01T03:25:02.087Z,0.00
2022-09-01T03:26:02.072Z,0.00
2022-09-01T03:27:02.057Z,0.00
2022-09-01T03:28:03.134Z,0.00
2022-09-01T03:29:03.016Z,0.00
2022-09-01T03:30:01.995Z,0.00
2022-09-01T03:31:01.975Z,0.00
2022-09-01T03:32:02.030Z,0.00
2022-09-01T03:33:01.935Z,0.00
2022-09-01T03:34:01.913Z,0.00
2022-09-01T03:35:01.900Z,0.00
2022-09-01T03:36:01.880Z,0.00
2022-09-01T03:37:01.862Z,0.00
2022-09-01T03:38:01.845Z,0.00
2022-09-01T03:39:01.823Z,0.00
2022-09-01T03:40:01.876Z,0.00
2022-09-01T03:41:01.783Z,0.00
2022-09-01T03:42:01.763Z,0.00
2022-09-01T03:43:01.744Z,0.00
2022-09-01T03:44:01.726Z,0.00
2022-09-01T03:45:01.708Z,0.00
2022-09-01T03:46:01.795Z,0.00
2022-09-01T03:47:01.668Z,0.00
2022-09-01T03:48:01.649Z,0.00
2022-09-01T03:49:01.629Z,4.00
2022-09-01T03:50:01.622Z,0.00
2022-09-01T03:51:01.596Z,0.00
2022-09-01T03:52:01.576Z,4.00
2022-09-01T03:53:01.559Z,4.00
2022-09-01T03:54:01.546Z,0.00
2022-09-01T03:55:01.525Z,4.00
2022-09-01T03:56:01.549Z,4.00
2022-09-01T03:57:01.497Z,4.00
2022-09-01T03:58:01.466Z,8.00
2022-09-01T03:59:01.446Z,4.00
2022-09-01T04:00:01.424Z,4.00
2022-09-01T04:01:01.447Z,8.00
2022-09-01T04:02:01.418Z,8.00
2022-09-01T04:03:01.373Z,8.00
2022-09-01T04:04:01.359Z,12.00
2022-09-01T04:05:03.522Z,12.00
2022-09-01T04:06:01.321Z,16.00
2022-09-01T04:07:01.299Z,20.00
2022-09-01T04:08:01.279Z,24.00
2022-09-01T04:09:01.260Z,24.00
2022-09-01T04:10:01.244Z,32.00
2022-09-01T04:11:01.224Z,36.00
2022-09-01T04:12:01.208Z,40.00
2022-09-01T04:13:01.185Z,48.00
2022-09-01T04:14:01.170Z,56.00
2022-09-01T04:15:01.149Z,64.00
2022-09-01T04:16:01.204Z,72.00
2022-09-01T04:17:01.116Z,84.00
2022-09-01T04:18:01.099Z,100.00
2022-09-01T04:19:01.084Z,112.00
2022-09-01T04:20:01.063Z,128.00
2022-09-01T04:21:01.039Z,152.00
2022-09-01T04:22:01.023Z,168.00
2022-09-01T04:23:01.004Z,192.00
2022-09-01T04:24:00.987Z,216.00
2022-09-01T04:25:00.972Z,240.00
2022-09-01T04:26:00.949Z,268.00
2022-09-01T04:27:00.952Z,300.00
2022-09-01T04:28:00.910Z,332.00
2022-09-01T04:29:00.896Z,372.00
2022-09-01T04:30:00.880Z,408.00
2022-09-01T04:31:00.859Z,448.00
2022-09-01T04:32:00.868Z,488.00
2022-09-01T04:33:00.815Z,532.00
2022-09-01T04:34:00.798Z,576.00
2022-09-01T04:35:00.778Z,628.00
2022-09-01T04:36:00.765Z,680.00
2022-09-01T04:37:00.741Z,732.00
2022-09-01T04:38:00.718Z,784.00
2022-09-01T04:39:00.734Z,848.00
2022-09-01T04:40:00.688Z,908.00
2022-09-01T04:41:00.665Z,972.00
2022-09-01T04:42:00.651Z,1040.00
2022-09-01T04:43:00.647Z,1112.00
2022-09-01T04:44:00.619Z,1188.00
2022-09-01T04:45:08.977Z,1272.00
2022-09-01T04:46:01.656Z,1360.00
2022-09-01T04:47:00.560Z,1452.00
2022-09-01T04:48:00.541Z,1548.00
2022-09-01T04:49:00.525Z,1652.00
2022-09-01T04:50:00.502Z,1776.00
2022-09-01T04:51:00.485Z,1984.00
2022-09-01T04:52:00.476Z,2716.00
2022-09-01T04:53:00.446Z,3032.00
2022-09-01T04:54:00.429Z,4020.00
2022-09-01T04:55:00.407Z,4508.00
2022-09-01T04:56:00.386Z,4972.00
2022-09-01T04:57:00.366Z,5244.00
2022-09-01T04:58:00.350Z,6424.00
2022-09-01T04:59:00.328Z,4808.00
2022-09-01T05:00:00.316Z,5464.00
2022-09-01T05:01:00.360Z,5356.00
2022-09-01T05:02:00.405Z,7784.00
2022-09-01T05:03:00.244Z,7752.00
2022-09-01T05:04:00.221Z,9632.00
2022-09-01T05:05:00.207Z,10592.00
2022-09-01T05:06:00.206Z,11296.00
2022-09-01T05:07:00.162Z,10848.00
2022-09-01T05:08:00.134Z,11136.00
2022-09-01T05:09:00.115Z,12128.00
2022-09-01T05:10:01.374Z,13536.00
2022-09-01T05:11:01.069Z,13888.00
2022-09-01T05:12:00.052Z,9692.00
2022-09-01T05:13:00.027Z,8784.00
2022-09-01T05:14:00.007Z,10816.00
2022-09-01T05:14:59.973Z,6380.00
2022-09-01T05:16:00.974Z,5196.00
2022-09-01T05:16:59.935Z,5016.00
2022-09-01T05:17:59.939Z,5128.00
2022-09-01T05:18:59.894Z,5260.00
2022-09-01T05:19:59.875Z,5224.00
2022-09-01T05:20:59.854Z,5328.00
2022-09-01T05:21:59.822Z,5700.00
2022-09-01T05:23:00.805Z,7956.00
2022-09-01T05:23:59.786Z,12928.00
2022-09-01T05:24:59.776Z,10560.00
2022-09-01T05:25:59.745Z,14048.00
2022-09-01T05:26:59.717Z,13024.00
2022-09-01T05:27:59.696Z,14432.00
2022-09-01T05:28:59.678Z,14848.00
2022-09-01T05:29:59.653Z,10328.00
2022-09-01T05:30:59.677Z,6708.00
2022-09-01T05:31:59.611Z,6688.00
2022-09-01T05:32:59.585Z,6796.00
2022-09-01T05:33:59.562Z,6740.00
2022-09-01T05:34:59.539Z,6584.00
2022-09-01T05:35:59.517Z,6576.00
2022-09-01T05:36:59.518Z,6656.00
2022-09-01T05:37:59.473Z,6696.00
2022-09-01T05:38:59.449Z,6780.00
2022-09-01T05:39:59.425Z,6864.00
2022-09-01T05:40:59.402Z,7004.00
2022-09-01T05:41:59.384Z,7256.00
2022-09-01T05:42:59.374Z,7484.00
2022-09-01T05:44:00.751Z,7728.00
2022-09-01T05:45:00.321Z,8244.00
2022-09-01T05:46:07.366Z,9036.00
2022-09-01T05:47:01.306Z,16000.00
2022-09-01T05:47:59.253Z,17824.00
2022-09-01T05:48:59.239Z,11120.00
2022-09-01T05:49:59.201Z,11176.00
2022-09-01T05:50:59.177Z,51488.00
2022-09-01T05:51:59.336Z,12260.00
2022-09-01T05:52:59.134Z,59296.00
2022-09-01T05:53:59.130Z,61600.00
2022-09-01T05:54:59.091Z,61888.00
2022-09-01T05:55:59.071Z,59648.00
2022-09-01T05:57:12.677Z,44224.00
2022-09-01T05:58:01.026Z,55296.00
2022-09-01T06:00:00.997Z,52032.00
2022-09-01T06:00:58.963Z,54688.00
2022-09-01T06:02:00.248Z,56384.00
2022-09-01T06:02:59.036Z,59744.00
2022-09-01T06:03:58.923Z,60672.00
2022-09-01T06:04:58.892Z,62496.00
2022-09-01T06:05:59.881Z,64416.00
2022-09-01T06:07:07.692Z,65760.00
2022-09-01T06:08:00.850Z,67488.00
2022-09-01T06:08:58.826Z,67360.00
2022-09-01T06:09:58.810Z,51968.00
2022-09-01T06:10:58.789Z,63104.00
2022-09-01T06:11:58.772Z,64160.00
2022-09-01T06:12:58.752Z,62912.00
2022-09-01T06:13:58.734Z,63200.00
2022-09-01T06:14:58.724Z,65984.00
2022-09-01T06:15:58.733Z,68384.00
2022-09-01T06:16:58.684Z,67552.00
2022-09-01T06:17:58.662Z,69248.00
2022-09-01T06:18:58.646Z,70528.00
2022-09-01T06:19:58.669Z,69824.00
2022-09-01T06:20:58.610Z,69120.00
2022-09-01T06:21:58.586Z,71584.00
2022-09-01T06:22:58.573Z,72544.00
2022-09-01T06:23:58.552Z,73056.00
2022-09-01T06:25:02.405Z,72960.00
2022-09-01T06:25:59.516Z,73152.00
2022-09-01T06:26:58.497Z,75712.00
2022-09-01T06:27:58.478Z,72416.00
2022-09-01T06:28:58.467Z,68960.00
2022-09-01T06:29:58.608Z,68096.00
2022-09-01T06:30:58.508Z,69184.00
2022-09-01T06:31:58.406Z,68736.00
2022-09-01T06:32:58.391Z,69696.00
2022-09-01T06:33:58.374Z,70816.00
2022-09-01T06:34:58.372Z,71552.00
2022-09-01T06:35:58.340Z,71072.00
2022-09-01T06:36:58.325Z,72160.00
2022-09-01T06:37:58.309Z,74304.00
2022-09-01T06:38:58.288Z,74848.00
2022-09-01T06:39:58.272Z,78976.00
2022-09-01T06:40:58.307Z,73792.00
2022-09-01T06:41:58.238Z,76192.00
2022-09-01T06:42:58.221Z,71936.00
2022-09-01T06:43:58.198Z,24576.00
2022-09-01T06:44:58.183Z,71296.00
2022-09-01T06:45:58.163Z,73920.00
2022-09-01T06:46:58.193Z,74816.00
2022-09-01T06:48:00.346Z,78592.00
2022-09-01T06:48:58.112Z,82592.00
2022-09-01T06:49:58.095Z,78464.00
2022-09-01T06:52:00.075Z,81504.00
2022-09-01T06:54:00.027Z,80480.00
2022-09-01T06:54:58.006Z,78144.00
2022-09-01T06:55:57.991Z,76064.00
2022-09-01T06:56:57.983Z,73600.00
2022-09-01T06:58:06.610Z,76928.00
2022-09-01T06:58:59.943Z,78784.00
2022-09-01T06:59:57.921Z,84576.00
2022-09-01T07:00:57.906Z,83680.00
2022-09-01T07:02:59.869Z,82656.00
2022-09-01T07:03:57.850Z,69152.00
2022-09-01T07:04:57.834Z,85536.00
2022-09-01T07:06:00.830Z,84992.00
2022-09-01T07:06:59.359Z,87776.00
2022-09-01T07:08:06.208Z,90176.00
2022-09-01T07:13:06.859Z,89600.00
2022-09-01T07:14:15.928Z,90112.00
2022-09-01T07:17:25.272Z,92928.00
2022-09-01T07:17:59.622Z,91072.00
2022-09-01T07:18:58.781Z,88224.00
2022-09-01T07:20:23.189Z,85056.00
2022-09-01T07:21:36.538Z,84576.00
2022-09-01T07:22:07.229Z,83584.00
2022-09-01T07:23:07.164Z,83584.00
2022-09-01T07:24:10.382Z,86176.00
2022-09-01T07:25:12.086Z,87584.00
2022-09-01T07:27:07.789Z,81312.00
2022-09-01T07:28:00.372Z,84480.00
2022-09-01T07:29:06.238Z,89024.00
2022-09-01T07:29:59.439Z,92384.00
2022-09-01T07:30:57.417Z,92320.00
2022-09-01T07:33:41.588Z,91776.00
2022-09-01T07:34:38.468Z,93760.00
2022-09-01T07:35:00.145Z,90208.00
2022-09-01T07:42:59.594Z,83392.00
2022-09-01T07:43:58.209Z,92032.00
2022-09-01T07:45:25.404Z,91552.00
2022-09-01T07:45:59.607Z,90432.00
2022-09-01T07:47:59.192Z,92896.00
2022-09-01T07:50:37.671Z,95424.00
2022-09-01T07:51:59.645Z,94080.00
2022-09-01T07:52:57.061Z,94080.00
2022-09-01T07:53:57.057Z,94432.00
2022-09-01T07:54:57.022Z,93376.00
2022-09-01T07:55:57.007Z,90432.00
2022-09-01T07:56:56.993Z,88544.00
2022-09-01T07:57:56.975Z,87264.00
2022-09-01T07:58:56.953Z,83840.00
2022-09-01T07:59:56.937Z,83680.00
2022-09-01T08:00:56.917Z,85984.00
2022-09-01T08:01:56.937Z,85184.00
2022-09-01T08:02:57.394Z,83776.00
2022-09-01T08:03:57.864Z,81600.00
2022-09-01T08:04:56.849Z,83104.00
2022-09-01T08:05:56.834Z,86496.00
2022-09-01T08:06:56.816Z,86688.00
2022-09-01T08:07:56.798Z,83328.00
2022-09-01T08:08:57.236Z,82880.00
2022-09-01T08:10:01.339Z,84224.00
2022-09-01T08:11:05.090Z,86848.00
2022-09-01T08:12:02.232Z,85184.00
2022-09-01T08:12:57.719Z,83040.00
2022-09-01T08:13:56.695Z,84256.00
2022-09-01T08:16:07.178Z,82304.00
2022-09-01T08:16:58.772Z,83744.00
2022-09-01T08:17:56.656Z,83200.00
2022-09-01T08:18:56.670Z,82656.00
2022-09-01T08:19:56.600Z,83424.00
2022-09-01T08:20:56.582Z,83680.00
2022-09-01T08:21:56.566Z,82880.00
2022-09-01T08:22:56.546Z,82624.00
2022-09-01T08:23:56.536Z,83520.00
2022-09-01T08:24:56.514Z,81216.00
2022-09-01T08:25:56.495Z,77472.00
2022-09-01T08:26:56.480Z,77952.00
2022-09-01T08:28:03.152Z,80032.00
2022-09-01T08:28:58.481Z,80512.00
2022-09-01T08:29:56.430Z,78528.00
2022-09-01T08:30:56.496Z,79136.00
2022-09-01T08:31:58.535Z,83072.00
2022-09-01T08:32:56.373Z,82656.00
2022-09-01T08:33:56.358Z,78016.00
2022-09-01T08:34:56.339Z,73408.00
2022-09-01T08:35:56.318Z,73760.00
2022-09-01T08:36:56.297Z,77376.00
2022-09-01T08:37:56.279Z,80704.00
2022-09-01T08:38:56.262Z,78976.00
2022-09-01T08:39:56.245Z,74976.00
2022-09-01T08:40:57.308Z,73248.00
2022-09-01T08:41:58.631Z,74208.00
2022-09-01T08:42:56.196Z,78336.00
2022-09-01T08:43:57.159Z,80416.00
2022-09-01T08:44:56.158Z,79872.00
2022-09-01T08:45:56.201Z,77344.00
2022-09-01T08:46:57.096Z,75104.00
2022-09-01T08:48:29.026Z,77376.00
2022-09-01T08:49:28.138Z,79104.00
2022-09-01T08:49:58.083Z,76096.00
2022-09-01T08:50:56.501Z,70592.00
2022-09-01T08:51:56.039Z,59552.00
2022-09-01T08:52:56.022Z,58912.00
2022-09-01T08:53:56.000Z,64320.00
2022-09-01T08:54:55.983Z,59520.00
2022-09-01T08:55:55.963Z,57376.00
2022-09-01T08:56:55.949Z,57824.00
2022-09-01T08:57:59.171Z,63808.00
2022-09-01T08:58:56.943Z,69248.00
2022-09-01T08:59:55.894Z,67360.00
2022-09-01T09:00:57.668Z,65056.00
2022-09-01T09:01:55.908Z,64960.00
2022-09-01T09:02:57.161Z,65280.00
2022-09-01T09:03:55.824Z,62816.00
2022-09-01T09:04:55.809Z,58944.00
2022-09-01T09:05:55.791Z,61152.00
2022-09-01T09:06:55.770Z,66048.00
2022-09-01T09:08:06.607Z,70752.00
2022-09-01T09:08:57.733Z,69920.00
2022-09-01T09:09:55.716Z,69216.00
2022-09-01T09:10:55.697Z,67232.00
2022-09-01T09:11:55.686Z,64320.00
2022-09-01T09:12:55.661Z,67776.00
2022-09-01T09:13:56.006Z,70016.00
2022-09-01T09:14:55.627Z,67008.00
2022-09-01T09:16:07.353Z,63360.00
2022-09-01T09:16:57.589Z,64416.00
2022-09-01T09:17:59.786Z,70048.00
2022-09-01T09:18:56.780Z,68448.00
2022-09-01T09:19:55.532Z,68480.00
2022-09-01T09:20:55.514Z,67136.00
2022-09-01T09:21:55.504Z,70656.00
2022-09-01T09:22:55.477Z,66880.00
2022-09-01T09:23:55.973Z,65248.00
2022-09-01T09:24:56.490Z,62240.00
2022-09-01T09:25:56.864Z,64288.00
2022-09-01T09:26:55.410Z,66592.00
2022-09-01T09:28:02.530Z,58784.00
2022-09-01T09:28:57.371Z,60288.00
2022-09-01T09:29:55.444Z,58624.00
2022-09-01T09:30:55.363Z,63680.00
2022-09-01T09:31:55.317Z,61440.00
2022-09-01T09:33:57.467Z,63104.00
2022-09-01T09:34:55.260Z,61344.00
2022-09-01T09:35:55.245Z,57952.00
2022-09-01T09:36:57.077Z,61216.00
2022-09-01T09:37:57.194Z,52832.00
2022-09-01T09:38:56.194Z,54880.00
2022-09-01T09:39:55.169Z,50048.00
2022-09-01T09:41:16.079Z,29920.00
2022-09-01T09:41:57.230Z,13604.00
2022-09-01T09:42:55.115Z,12688.00
2022-09-01T09:43:55.097Z,12376.00
2022-09-01T09:44:55.463Z,12120.00
2022-09-01T09:45:55.087Z,12008.00
2022-09-01T09:46:55.077Z,11884.00
2022-09-01T09:47:55.020Z,11876.00
2022-09-01T09:48:55.006Z,11868.00
2022-09-01T09:49:54.988Z,12068.00
2022-09-01T09:50:55.015Z,12620.00
2022-09-01T09:51:55.548Z,10908.00
2022-09-01T09:52:54.933Z,11676.00
2022-09-01T09:53:54.913Z,11628.00
2022-09-01T09:54:54.894Z,11616.00
2022-09-01T09:55:56.268Z,11736.00
2022-09-01T09:56:55.860Z,11708.00
2022-09-01T09:57:54.834Z,11384.00
2022-09-01T09:58:54.822Z,11536.00
2022-09-01T09:59:59.126Z,11900.00
2022-09-01T10:00:56.814Z,11988.00
2022-09-01T10:01:54.768Z,11848.00
2022-09-01T10:02:54.748Z,11896.00
2022-09-01T10:03:54.784Z,12060.00
2022-09-01T10:04:55.894Z,12172.00
2022-09-01T10:05:55.696Z,12288.00
2022-09-01T10:06:54.679Z,12228.00
2022-09-01T10:07:54.662Z,11896.00
2022-09-01T10:08:54.645Z,10148.00
2022-09-01T10:09:54.629Z,10072.00
2022-09-01T10:10:58.378Z,10060.00
2022-09-01T10:11:54.593Z,10428.00
2022-09-01T10:12:54.573Z,10636.00
2022-09-01T10:13:54.552Z,10588.00
2022-09-01T10:14:54.530Z,10284.00
2022-09-01T10:15:54.511Z,10196.00
2022-09-01T10:16:54.531Z,10232.00
2022-09-01T10:18:19.581Z,11912.00
2022-09-01T10:18:56.457Z,11864.00
2022-09-01T10:19:54.434Z,12108.00
2022-09-01T10:20:54.418Z,12268.00
2022-09-01T10:21:54.399Z,11100.00
2022-09-01T10:22:54.376Z,11676.00
2022-09-01T10:23:54.726Z,11480.00
2022-09-01T10:24:54.344Z,10236.00
2022-09-01T10:25:54.321Z,9436.00
2022-09-01T10:26:54.300Z,9448.00
2022-09-01T10:27:55.494Z,9504.00
2022-09-01T10:28:55.268Z,9604.00
2022-09-01T10:30:12.226Z,9840.00
2022-09-01T10:30:55.230Z,10164.00
2022-09-01T10:32:14.899Z,10480.00
2022-09-01T10:32:58.141Z,10716.00
2022-09-01T10:33:58.600Z,10712.00
2022-09-01T10:34:54.154Z,10576.00
2022-09-01T10:35:54.144Z,11132.00
2022-09-01T10:36:55.750Z,10824.00
2022-09-01T10:37:55.906Z,11856.00
2022-09-01T10:39:00.022Z,11600.00
2022-09-01T10:39:55.052Z,11884.00
2022-09-01T10:40:54.080Z,12192.00
2022-09-01T10:41:59.926Z,12124.00
2022-09-01T10:42:55.010Z,11832.00
2022-09-01T10:43:54.073Z,11496.00
2022-09-01T10:44:53.955Z,11132.00
2022-09-01T10:45:59.119Z,10304.00
2022-09-01T10:46:59.846Z,10824.00
2022-09-01T10:47:55.909Z,11164.00
2022-09-01T10:48:55.786Z,11092.00
2022-09-01T10:49:53.867Z,9400.00
2022-09-01T10:50:53.838Z,9368.00
2022-09-01T10:51:56.289Z,9148.00
2022-09-01T10:52:54.790Z,8784.00
2022-09-01T10:53:53.779Z,9004.00
2022-09-01T10:54:55.591Z,10664.00
2022-09-01T10:55:59.079Z,9248.00
2022-09-01T10:56:55.742Z,9740.00
2022-09-01T10:57:53.701Z,9968.00
2022-09-01T10:59:57.001Z,11652.00
2022-09-01T11:02:23.092Z,11732.00
2022-09-01T11:02:54.649Z,10600.00
2022-09-01T11:03:53.754Z,10656.00
2022-09-01T11:04:53.795Z,11536.00
2022-09-01T11:06:11.181Z,10076.00
2022-09-01T11:08:01.251Z,11760.00
2022-09-01T11:08:55.501Z,11652.00
2022-09-01T11:09:57.308Z,10344.00
2022-09-01T11:10:54.460Z,10968.00
2022-09-01T11:11:53.443Z,10920.00
2022-09-01T11:12:53.422Z,12084.00
2022-09-01T11:13:53.400Z,11760.00
2022-09-01T11:14:53.381Z,10024.00
2022-09-01T11:15:53.368Z,11392.00
2022-09-01T11:16:53.431Z,11464.00
2022-09-01T11:17:53.322Z,11236.00
2022-09-01T11:18:53.302Z,9312.00
2022-09-01T11:19:53.285Z,9312.00
2022-09-01T11:20:53.279Z,9360.00
2022-09-01T11:21:53.253Z,11320.00
2022-09-01T11:22:53.236Z,11496.00
2022-09-01T11:23:53.214Z,11672.00
2022-09-01T11:24:58.071Z,10136.00
2022-09-01T11:26:55.161Z,12296.00
2022-09-01T11:27:53.136Z,12224.00
2022-09-01T11:28:53.117Z,10716.00
2022-09-01T11:29:53.097Z,10532.00
2022-09-01T11:30:53.143Z,10400.00
2022-09-01T11:31:53.097Z,10328.00
2022-09-01T11:32:53.045Z,12152.00
2022-09-01T11:33:53.024Z,12224.00
2022-09-01T11:34:53.025Z,12304.00
2022-09-01T11:35:52.996Z,12520.00
2022-09-01T11:36:52.985Z,12356.00
2022-09-01T11:37:52.958Z,12116.00
2022-09-01T11:38:52.941Z,12248.00
2022-09-01T11:39:52.902Z,12100.00
2022-09-01T11:40:52.935Z,11896.00
2022-09-01T11:41:55.851Z,11708.00
2022-09-01T11:42:53.845Z,11620.00
2022-09-01T11:43:53.816Z,11540.00
2022-09-01T11:44:52.801Z,11500.00
2022-09-01T11:45:52.817Z,11448.00
2022-09-01T11:46:53.766Z,11480.00
2022-09-01T11:47:52.786Z,11380.00
2022-09-01T11:48:52.726Z,11244.00
2022-09-01T11:49:52.699Z,11152.00
2022-09-01T11:50:53.688Z,11128.00
2022-09-01T11:51:52.667Z,11164.00
2022-09-01T11:52:52.649Z,10156.00
2022-09-01T11:53:52.622Z,10280.00
2022-09-01T11:54:53.607Z,9580.00
2022-09-01T11:55:52.594Z,9344.00
2022-09-01T11:56:52.569Z,9164.00
2022-09-01T11:57:52.552Z,9248.00
2022-09-01T11:58:52.536Z,9464.00
2022-09-01T11:59:52.523Z,9720.00
2022-09-01T12:00:52.493Z,10020.00
2022-09-01T12:01:52.568Z,10288.00
2022-09-01T12:02:52.530Z,10488.00
2022-09-01T12:03:52.434Z,10800.00
2022-09-01T12:04:52.417Z,11244.00
2022-09-01T12:05:52.404Z,11516.00
2022-09-01T12:06:52.378Z,11696.00
2022-09-01T12:07:52.357Z,11964.00
2022-09-01T12:08:52.337Z,11988.00
2022-09-01T12:09:52.322Z,12012.00
2022-09-01T12:10:52.300Z,11948.00
2022-09-01T12:11:52.281Z,11836.00
2022-09-01T12:12:52.261Z,11804.00
2022-09-01T12:13:52.239Z,11568.00
2022-09-01T12:15:05.162Z,11280.00
2022-09-01T12:16:16.384Z,11112.00
2022-09-01T12:16:54.214Z,11028.00
2022-09-01T12:17:52.173Z,10912.00
2022-09-01T12:18:52.159Z,11124.00
2022-09-01T12:19:52.129Z,11128.00
2022-09-01T12:20:52.114Z,11324.00
2022-09-01T12:21:54.152Z,10772.00
2022-09-01T12:22:52.069Z,10508.00
2022-09-01T12:23:52.050Z,10352.00
2022-09-01T12:24:52.029Z,10184.00
2022-09-01T12:25:52.008Z,10132.00
2022-09-01T12:26:51.993Z,10192.00
2022-09-01T12:27:51.970Z,10348.00
2022-09-01T12:28:51.948Z,10540.00
2022-09-01T12:29:52.930Z,10852.00
2022-09-01T12:30:51.912Z,11964.00
2022-09-01T12:31:51.967Z,12028.00
2022-09-01T12:32:51.977Z,11824.00
2022-09-01T12:33:51.859Z,11992.00
2022-09-01T12:34:51.836Z,11824.00
2022-09-01T12:35:54.049Z,11648.00
2022-09-01T12:36:52.808Z,11440.00
2022-09-01T12:37:51.782Z,11404.00
2022-09-01T12:38:51.766Z,11248.00
2022-09-01T12:39:51.753Z,11204.00
2022-09-01T12:40:51.768Z,11172.00
2022-09-01T12:41:52.710Z,11120.00
2022-09-01T12:42:51.694Z,11056.00
2022-09-01T12:43:54.825Z,10888.00
2022-09-01T12:44:52.657Z,10708.00